createdAt,value
2016-08-30T00:00:43.814Z,-51
2016-08-30T00:01:28.723Z,-51
2016-08-30T00:02:24.296Z,-51
2016-08-30T00:03:21.798Z,-52
2016-08-30T00:04:22.659Z,-51
2016-08-30T00:05:24.332Z,-51
2016-08-30T00:06:21.755Z,-51
2016-08-30T00:07:21.784Z,-51
2016-08-30T00:08:21.749Z,-50
2016-08-30T00:09:21.805Z,-50
2016-08-30T00:10:21.864Z,-50
2016-08-30T00:11:21.710Z,-49
2016-08-30T00:12:21.715Z,-49
2016-08-30T00:13:21.758Z,-50
2016-08-30T00:14:21.673Z,-49
2016-08-30T00:15:22.420Z,-51
2016-08-30T00:16:21.713Z,-51
2016-08-30T00:17:21.727Z,-51
2016-08-30T00:18:21.716Z,-50
2016-08-30T00:19:21.773Z,-52
2016-08-30T00:20:21.733Z,-52
2016-08-30T00:21:21.722Z,-51
2016-08-30T00:22:21.699Z,-51
2016-08-30T00:23:21.711Z,-51
2016-08-30T00:24:21.727Z,-52
2016-08-30T00:25:22.867Z,-51
2016-08-30T00:26:21.724Z,-51
2016-08-30T00:27:21.699Z,-50
2016-08-30T00:28:21.714Z,-49
2016-08-30T00:29:21.728Z,-49
2016-08-30T00:30:23.918Z,-50
2016-08-30T00:31:21.713Z,-49
2016-08-30T00:32:21.712Z,-49
2016-08-30T00:33:21.726Z,-51
2016-08-30T00:34:21.714Z,-48
2016-08-30T00:35:21.689Z,-52
2016-08-30T00:36:22.058Z,-50
2016-08-30T00:37:21.761Z,-51
2016-08-30T00:38:21.753Z,-50
2016-08-30T00:39:21.746Z,-52
2016-08-30T00:40:21.779Z,-50
2016-08-30T00:41:21.788Z,-52
2016-08-30T00:42:22.196Z,-51
2016-08-30T00:43:21.937Z,-49
2016-08-30T00:44:21.752Z,-47
2016-08-30T00:45:21.746Z,-50
2016-08-30T00:46:21.729Z,-48
2016-08-30T00:47:22.134Z,-49
2016-08-30T00:48:21.771Z,-47
2016-08-30T00:49:21.781Z,-51
2016-08-30T00:50:21.941Z,-51
2016-08-30T00:51:21.753Z,-49
2016-08-30T00:52:21.760Z,-47
2016-08-30T00:53:21.763Z,-49
2016-08-30T00:54:25.117Z,-47
2016-08-30T00:55:22.112Z,-49
2016-08-30T00:56:22.052Z,-49
2016-08-30T00:57:22.021Z,-49
2016-08-30T00:58:22.096Z,-49
2016-08-30T00:59:22.087Z,-49
2016-08-30T01:00:22.893Z,-52
2016-08-30T01:01:22.114Z,-51
2016-08-30T01:02:22.050Z,-51
2016-08-30T01:03:22.095Z,-49
2016-08-30T01:04:22.074Z,-50
2016-08-30T01:05:22.963Z,-49
2016-08-30T01:06:22.050Z,-49
2016-08-30T01:07:22.122Z,-48
2016-08-30T01:08:22.028Z,-51
2016-08-30T01:09:22.018Z,-50
2016-08-30T01:10:22.129Z,-50
2016-08-30T01:11:22.059Z,-49
2016-08-30T01:12:22.130Z,-49
2016-08-30T01:13:22.093Z,-49
2016-08-30T01:14:22.146Z,-51
2016-08-30T01:15:22.130Z,-49
2016-08-30T01:17:31.977Z,-50
2016-08-30T01:18:22.095Z,-52
2016-08-30T01:19:22.089Z,-52
2016-08-30T01:20:22.129Z,-52
2016-08-30T01:21:22.067Z,-53
2016-08-30T01:22:22.021Z,-52
2016-08-30T01:23:22.135Z,-50
2016-08-30T01:24:22.115Z,-49
2016-08-30T01:25:22.152Z,-51
2016-08-30T01:26:22.101Z,-51
2016-08-30T01:27:22.230Z,-49
2016-08-30T01:28:22.081Z,-50
2016-08-30T01:29:22.090Z,-49
2016-08-30T01:30:22.129Z,-49
2016-08-30T01:31:22.048Z,-49
2016-08-30T01:32:22.108Z,-49
2016-08-30T01:33:22.136Z,-49
2016-08-30T01:34:22.164Z,-49
2016-08-30T01:35:22.109Z,-50
2016-08-30T01:36:22.099Z,-50
2016-08-30T01:37:22.118Z,-50
2016-08-30T01:38:22.104Z,-49
2016-08-30T01:39:22.056Z,-49
2016-08-30T01:40:22.373Z,-50
2016-08-30T01:41:22.213Z,-49
2016-08-30T01:42:22.094Z,-49
2016-08-30T01:43:22.199Z,-51
2016-08-30T01:44:22.114Z,-49
2016-08-30T01:45:22.138Z,-47
2016-08-30T01:46:22.125Z,-50
2016-08-30T01:47:22.112Z,-50
2016-08-30T01:48:22.049Z,-49
2016-08-30T01:49:22.148Z,-49
2016-08-30T01:50:22.108Z,-49
2016-08-30T01:51:22.142Z,-50
2016-08-30T01:52:22.206Z,-49
2016-08-30T01:53:22.117Z,-49
2016-08-30T01:54:22.116Z,-49
2016-08-30T01:55:22.174Z,-49
2016-08-30T01:56:22.134Z,-49
2016-08-30T01:57:22.146Z,-50
2016-08-30T01:58:22.113Z,-50
2016-08-30T01:59:22.171Z,-50
2016-08-30T02:00:22.086Z,-51
2016-08-30T02:01:22.103Z,-51
2016-08-30T02:02:22.145Z,-50
2016-08-30T02:03:22.072Z,-51
2016-08-30T02:04:22.152Z,-49
2016-08-30T02:05:22.098Z,-50
2016-08-30T02:06:22.081Z,-49
2016-08-30T02:07:22.143Z,-49
2016-08-30T02:08:22.047Z,-49
2016-08-30T02:09:22.044Z,-51
2016-08-30T02:10:22.172Z,-50
2016-08-30T02:11:22.148Z,-50
2016-08-30T02:12:22.171Z,-50
2016-08-30T02:13:22.078Z,-51
2016-08-30T02:14:22.182Z,-51
2016-08-30T02:15:22.256Z,-51
2016-08-30T02:16:22.163Z,-49
2016-08-30T02:17:22.119Z,-49
2016-08-30T02:18:22.110Z,-50
2016-08-30T02:19:22.149Z,-49
2016-08-30T02:20:22.329Z,-50
2016-08-30T02:21:22.091Z,-50
2016-08-30T02:22:22.109Z,-50
2016-08-30T02:23:22.161Z,-50
2016-08-30T02:24:22.102Z,-50
2016-08-30T02:25:22.161Z,-50
2016-08-30T02:26:22.098Z,-49
2016-08-30T02:27:22.149Z,-50
2016-08-30T02:28:22.148Z,-52
2016-08-30T02:29:22.189Z,-51
2016-08-30T02:30:22.224Z,-50
2016-08-30T02:31:22.177Z,-49
2016-08-30T02:32:22.201Z,-49
2016-08-30T02:35:33.569Z,-49
2016-08-30T02:36:22.097Z,-52
2016-08-30T02:37:21.789Z,-50
2016-08-30T02:38:21.894Z,-51
2016-08-30T02:39:21.816Z,-51
2016-08-30T02:40:21.794Z,-49
2016-08-30T02:41:21.923Z,-49
2016-08-30T02:42:21.811Z,-49
2016-08-30T02:43:21.808Z,-50
2016-08-30T02:44:21.833Z,-49
2016-08-30T02:45:21.832Z,-50
2016-08-30T02:46:21.803Z,-51
2016-08-30T02:47:21.823Z,-49
2016-08-30T02:48:21.830Z,-49
2016-08-30T02:49:21.815Z,-49
2016-08-30T02:50:22.359Z,-49
2016-08-30T02:51:21.846Z,-50
2016-08-30T02:52:21.827Z,-49
2016-08-30T02:53:21.842Z,-50
2016-08-30T02:54:21.818Z,-49
2016-08-30T02:55:21.813Z,-49
2016-08-30T02:56:21.809Z,-49
2016-08-30T02:57:21.803Z,-51
2016-08-30T02:58:21.813Z,-52
2016-08-30T02:59:21.831Z,-49
2016-08-30T03:00:22.101Z,-47
2016-08-30T03:01:21.809Z,-49
2016-08-30T03:02:21.839Z,-49
2016-08-30T03:03:21.818Z,-50
2016-08-30T03:04:21.849Z,-50
2016-08-30T03:05:21.951Z,-50
2016-08-30T03:06:21.885Z,-49
2016-08-30T03:07:21.863Z,-49
2016-08-30T03:08:21.846Z,-49
2016-08-30T03:09:21.889Z,-49
2016-08-30T03:10:21.877Z,-49
2016-08-30T03:11:21.862Z,-49
2016-08-30T03:12:21.827Z,-48
2016-08-30T03:13:21.850Z,-49
2016-08-30T03:14:21.915Z,-46
2016-08-30T03:15:23.293Z,-49
2016-08-30T03:16:21.858Z,-49
2016-08-30T03:17:21.863Z,-49
2016-08-30T03:18:21.843Z,-49
2016-08-30T03:19:21.844Z,-49
2016-08-30T03:20:21.860Z,-49
2016-08-30T03:21:21.862Z,-50
2016-08-30T03:22:21.861Z,-53
2016-08-30T03:23:21.867Z,-53
2016-08-30T03:24:21.874Z,-52
2016-08-30T03:25:21.917Z,-53
2016-08-30T03:26:21.814Z,-51
2016-08-30T03:27:21.879Z,-52
2016-08-30T03:28:21.814Z,-51
2016-08-30T03:29:21.829Z,-52
2016-08-30T03:30:21.885Z,-52
2016-08-30T03:31:21.841Z,-51
2016-08-30T03:32:21.835Z,-51
2016-08-30T03:33:21.852Z,-51
2016-08-30T03:34:21.845Z,-51
2016-08-30T03:35:21.893Z,-51
2016-08-30T03:36:21.843Z,-51
2016-08-30T03:37:21.860Z,-51
2016-08-30T03:38:21.875Z,-51
2016-08-30T03:39:21.880Z,-51
2016-08-30T03:40:21.974Z,-51
2016-08-30T03:41:21.914Z,-49
2016-08-30T03:42:21.890Z,-50
2016-08-30T03:43:21.938Z,-51
2016-08-30T03:44:21.857Z,-49
2016-08-30T03:45:22.269Z,-49
2016-08-30T03:46:21.884Z,-49
2016-08-30T03:47:21.877Z,-50
2016-08-30T03:48:21.940Z,-50
2016-08-30T03:49:21.890Z,-52
2016-08-30T03:50:21.875Z,-51
2016-08-30T03:51:21.866Z,-51
2016-08-30T03:52:21.927Z,-52
2016-08-30T03:53:21.942Z,-52
2016-08-30T03:54:21.877Z,-51
2016-08-30T03:55:21.888Z,-51
2016-08-30T03:56:21.918Z,-50
2016-08-30T03:57:21.892Z,-50
2016-08-30T03:58:21.873Z,-51
2016-08-30T03:59:21.880Z,-51
2016-08-30T04:00:22.092Z,-49
2016-08-30T04:01:21.878Z,-49
2016-08-30T04:02:21.906Z,-48
2016-08-30T04:03:21.879Z,-48
2016-08-30T04:04:21.863Z,-49
2016-08-30T04:05:21.878Z,-49
2016-08-30T04:06:21.876Z,-49
2016-08-30T04:07:21.882Z,-48
2016-08-30T04:08:21.876Z,-48
2016-08-30T04:09:21.890Z,-49
2016-08-30T04:10:21.879Z,-49
2016-08-30T04:11:21.862Z,-49
2016-08-30T04:12:21.939Z,-48
2016-08-30T04:13:22.036Z,-49
2016-08-30T04:14:21.886Z,-49
2016-08-30T04:15:21.864Z,-49
2016-08-30T04:16:21.903Z,-49
2016-08-30T04:17:21.860Z,-49
2016-08-30T04:18:22.777Z,-49
2016-08-30T04:19:21.870Z,-49
2016-08-30T04:20:21.907Z,-49
2016-08-30T04:21:21.869Z,-51
2016-08-30T04:22:21.922Z,-50
2016-08-30T04:23:21.895Z,-50
2016-08-30T04:24:21.966Z,-50
2016-08-30T04:25:21.957Z,-50
2016-08-30T04:26:21.911Z,-49
2016-08-30T04:27:21.920Z,-49
2016-08-30T04:28:21.927Z,-49
2016-08-30T04:29:21.907Z,-50
2016-08-30T04:30:21.926Z,-51
2016-08-30T04:31:21.941Z,-50
2016-08-30T04:32:21.974Z,-50
2016-08-30T04:33:21.921Z,-52
2016-08-30T04:34:22.041Z,-51
2016-08-30T04:35:21.977Z,-51
2016-08-30T04:36:21.921Z,-52
2016-08-30T04:37:21.926Z,-51
2016-08-30T04:38:21.927Z,-52
2016-08-30T04:39:21.924Z,-50
2016-08-30T04:40:22.580Z,-50
2016-08-30T04:41:21.913Z,-51
2016-08-30T04:42:21.909Z,-51
2016-08-30T04:43:21.913Z,-51
2016-08-30T04:44:21.892Z,-52
2016-08-30T04:45:21.896Z,-50
2016-08-30T04:46:21.937Z,-50
2016-08-30T04:47:21.923Z,-51
2016-08-30T04:48:21.956Z,-51
2016-08-30T04:49:21.967Z,-50
2016-08-30T04:50:21.920Z,-48
2016-08-30T04:51:21.909Z,-50
2016-08-30T04:52:21.903Z,-51
2016-08-30T04:53:21.892Z,-50
2016-08-30T04:54:21.941Z,-52
2016-08-30T04:55:22.181Z,-51
2016-08-30T04:56:22.004Z,-51
2016-08-30T04:57:21.955Z,-51
2016-08-30T04:58:21.938Z,-49
2016-08-30T04:59:21.927Z,-50
2016-08-30T05:00:21.939Z,-49
2016-08-30T05:01:21.912Z,-50
2016-08-30T05:02:21.921Z,-49
2016-08-30T05:03:21.928Z,-50
2016-08-30T05:04:21.965Z,-51
2016-08-30T05:05:21.958Z,-50
2016-08-30T05:06:21.989Z,-50
2016-08-30T05:07:21.927Z,-50
2016-08-30T05:08:21.918Z,-49
2016-08-30T05:09:21.939Z,-50
2016-08-30T05:10:22.049Z,-49
2016-08-30T05:11:22.659Z,-49
2016-08-30T05:12:21.905Z,-49
2016-08-30T05:13:21.938Z,-49
2016-08-30T05:14:22.097Z,-50
2016-08-30T05:15:21.983Z,-50
2016-08-30T05:16:21.944Z,-50
2016-08-30T05:17:22.066Z,-50
2016-08-30T05:18:21.940Z,-50
2016-08-30T05:19:21.940Z,-48
2016-08-30T05:20:21.967Z,-49
2016-08-30T05:21:21.952Z,-49
2016-08-30T05:22:21.934Z,-51
2016-08-30T05:23:21.925Z,-49
2016-08-30T05:24:21.943Z,-50
2016-08-30T05:25:21.967Z,-50
2016-08-30T05:26:22.004Z,-49
2016-08-30T05:27:21.937Z,-49
2016-08-30T05:28:21.931Z,-51
2016-08-30T05:29:21.941Z,-53
2016-08-30T05:30:22.315Z,-50
2016-08-30T05:31:21.921Z,-52
2016-08-30T05:32:21.955Z,-52
2016-08-30T05:33:21.947Z,-51
2016-08-30T05:34:21.954Z,-51
2016-08-30T05:35:21.961Z,-49
2016-08-30T05:36:22.258Z,-49
2016-08-30T05:37:22.004Z,-49
2016-08-30T05:38:22.040Z,-50
2016-08-30T05:39:21.948Z,-50
2016-08-30T05:40:22.155Z,-50
2016-08-30T05:41:22.032Z,-49
2016-08-30T05:42:21.980Z,-49
2016-08-30T05:43:22.454Z,-49
2016-08-30T05:44:22.016Z,-50
2016-08-30T05:45:30.292Z,-52
2016-08-30T05:46:21.988Z,-50
2016-08-30T05:47:21.942Z,-49
2016-08-30T05:48:22.001Z,-50
2016-08-30T05:49:21.987Z,-48
2016-08-30T05:50:26.142Z,-50
2016-08-30T05:51:22.049Z,-51
2016-08-30T05:52:21.944Z,-49
2016-08-30T05:53:22.127Z,-49
2016-08-30T05:58:27.210Z,-49
2016-08-30T05:59:28.410Z,-49
2016-08-30T06:00:54.127Z,-50
2016-08-30T06:01:50.299Z,-48
2016-08-30T06:02:22.247Z,-48
2016-08-30T06:03:22.016Z,-48
2016-08-30T06:04:22.037Z,-50
2016-08-30T06:05:24.410Z,-48
2016-08-30T06:06:22.024Z,-48
2016-08-30T06:07:23.249Z,-49
2016-08-30T06:08:22.074Z,-49
2016-08-30T06:09:22.401Z,-49
2016-08-30T06:10:46.811Z,-50
2016-08-30T06:11:22.022Z,-49
2016-08-30T06:12:21.998Z,-49
2016-08-30T06:13:21.985Z,-49
2016-08-30T06:14:22.024Z,-50
2016-08-30T06:15:30.866Z,-49
2016-08-30T06:16:22.040Z,-49
2016-08-30T06:17:22.030Z,-50
2016-08-30T06:18:22.078Z,-50
2016-08-30T06:19:22.468Z,-49
2016-08-30T06:20:32.962Z,-49
2016-08-30T06:21:21.997Z,-48
2016-08-30T06:22:22.002Z,-49
2016-08-30T06:23:22.138Z,-50
2016-08-30T06:24:21.960Z,-50
2016-08-30T06:25:21.990Z,-49
2016-08-30T06:26:22.034Z,-51
2016-08-30T06:27:21.991Z,-50
2016-08-30T06:28:21.986Z,-51
2016-08-30T06:29:22.057Z,-51
2016-08-30T06:30:22.803Z,-51
2016-08-30T06:31:22.049Z,-49
2016-08-30T06:32:22.026Z,-49
2016-08-30T06:33:22.008Z,-49
2016-08-30T06:34:22.039Z,-49
2016-08-30T06:35:22.062Z,-50
2016-08-30T06:36:22.089Z,-51
2016-08-30T06:37:22.022Z,-51
2016-08-30T06:38:22.062Z,-51
2016-08-30T06:39:22.064Z,-51
2016-08-30T06:40:22.170Z,-51
2016-08-30T06:41:22.095Z,-50
2016-08-30T06:42:22.036Z,-51
2016-08-30T06:43:22.023Z,-51
2016-08-30T06:44:21.975Z,-51
2016-08-30T06:45:23.012Z,-50
2016-08-30T06:46:22.019Z,-50
2016-08-30T06:47:21.990Z,-51
2016-08-30T06:48:21.975Z,-51
2016-08-30T06:49:22.053Z,-49
2016-08-30T06:50:22.068Z,-51
2016-08-30T06:51:22.050Z,-51
2016-08-30T06:52:22.087Z,-50
2016-08-30T06:53:21.993Z,-49
2016-08-30T06:54:22.005Z,-49
2016-08-30T06:55:22.022Z,-47
2016-08-30T06:56:22.008Z,-50
2016-08-30T06:57:22.036Z,-49
2016-08-30T06:58:22.034Z,-51
2016-08-30T06:59:22.064Z,-47
2016-08-30T07:00:22.109Z,-51
2016-08-30T07:01:22.184Z,-49
2016-08-30T07:02:22.003Z,-50
2016-08-30T07:03:22.067Z,-51
2016-08-30T07:04:22.004Z,-50
2016-08-30T07:05:22.081Z,-51
2016-08-30T07:06:22.045Z,-49
2016-08-30T07:07:22.358Z,-51
2016-08-30T07:08:22.628Z,-49
2016-08-30T07:09:22.021Z,-47
2016-08-30T07:10:22.044Z,-51
2016-08-30T07:11:22.029Z,-51
2016-08-30T07:12:22.099Z,-49
2016-08-30T07:13:22.049Z,-49
2016-08-30T07:14:22.085Z,-49
2016-08-30T07:15:22.108Z,-50
2016-08-30T07:16:22.094Z,-49
2016-08-30T07:17:22.077Z,-49
2016-08-30T07:18:22.349Z,-49
2016-08-30T07:19:22.067Z,-50
2016-08-30T07:20:31.441Z,-50
2016-08-30T07:21:22.413Z,-51
2016-08-30T07:22:22.141Z,-49
2016-08-30T07:23:22.469Z,-49
2016-08-30T07:24:22.087Z,-49
2016-08-30T07:25:23.963Z,-49
2016-08-30T07:26:24.705Z,-51
2016-08-30T07:27:22.146Z,-50
2016-08-30T07:28:22.066Z,-51
2016-08-30T07:29:22.027Z,-51
2016-08-30T07:30:22.155Z,-51
2016-08-30T07:31:22.071Z,-51
2016-08-30T07:32:22.035Z,-51
2016-08-30T07:33:22.070Z,-51
2016-08-30T07:34:22.039Z,-48
2016-08-30T07:35:22.081Z,-48
2016-08-30T07:36:22.115Z,-46
2016-08-30T07:37:22.142Z,-51
2016-08-30T07:38:22.054Z,-51
2016-08-30T07:39:22.081Z,-50
2016-08-30T07:40:22.103Z,-51
2016-08-30T07:41:22.126Z,-50
2016-08-30T07:42:22.116Z,-48
2016-08-30T07:43:22.062Z,-51
2016-08-30T07:44:22.162Z,-50
2016-08-30T07:45:22.074Z,-51
2016-08-30T07:46:22.155Z,-49
2016-08-30T07:47:22.293Z,-50
2016-08-30T07:48:22.126Z,-50
2016-08-30T07:49:22.083Z,-51
2016-08-30T07:50:22.073Z,-51
2016-08-30T07:51:22.085Z,-52
2016-08-30T07:52:22.131Z,-50
2016-08-30T07:53:22.060Z,-50
2016-08-30T07:54:22.097Z,-51
2016-08-30T07:55:22.493Z,-52
2016-08-30T07:56:23.252Z,-50
2016-08-30T07:57:22.081Z,-49
2016-08-30T07:58:22.122Z,-51
2016-08-30T07:59:22.211Z,-52
2016-08-30T08:00:22.070Z,-50
2016-08-30T08:01:22.238Z,-50
2016-08-30T08:02:22.087Z,-51
2016-08-30T08:03:39.546Z,-50
2016-08-30T08:04:22.130Z,-51
2016-08-30T08:05:22.179Z,-49
2016-08-30T08:06:22.156Z,-51
2016-08-30T08:07:22.813Z,-51
2016-08-30T08:08:22.340Z,-51
2016-08-30T08:09:22.321Z,-53
2016-08-30T08:10:23.161Z,-52
2016-08-30T08:11:22.374Z,-52
2016-08-30T08:12:22.297Z,-52
2016-08-30T08:13:22.445Z,-53
2016-08-30T08:14:22.090Z,-53
2016-08-30T08:15:24.232Z,-54
2016-08-30T08:16:22.747Z,-53
2016-08-30T08:17:22.179Z,-54
2016-08-30T08:18:22.141Z,-54
2016-08-30T08:19:22.178Z,-55
2016-08-30T08:20:22.151Z,-55
2016-08-30T08:21:22.269Z,-54
2016-08-30T08:22:22.098Z,-53
2016-08-30T08:23:22.675Z,-53
2016-08-30T08:24:22.515Z,-51
2016-08-30T08:25:23.161Z,-51
2016-08-30T08:30:40.407Z,-52
2016-08-30T08:30:50.865Z,-51
2016-08-30T08:31:51.005Z,-52
2016-08-30T08:32:50.485Z,-52
2016-08-30T08:33:50.631Z,-51
2016-08-30T08:34:50.577Z,-53
2016-08-30T08:35:50.709Z,-52
2016-08-30T08:36:50.632Z,-51
2016-08-30T08:37:50.542Z,-51
2016-08-30T08:38:50.523Z,-53
2016-08-30T08:39:50.510Z,-52
2016-08-30T08:42:08.865Z,-51
2016-08-30T08:42:50.571Z,-51
2016-08-30T08:43:50.607Z,-51
2016-08-30T08:45:16.526Z,-51
2016-08-30T08:45:51.108Z,-52
2016-08-30T08:46:51.489Z,-54
2016-08-30T08:47:51.419Z,-52
2016-08-30T08:48:50.667Z,-54
2016-08-30T08:49:50.647Z,-54
2016-08-30T08:50:51.301Z,-55
2016-08-30T08:51:52.544Z,-51
2016-08-30T08:52:51.587Z,-54
2016-08-30T08:53:50.701Z,-54
2016-08-30T08:54:50.620Z,-52
2016-08-30T08:55:50.787Z,-54
2016-08-30T08:56:50.843Z,-54
2016-08-30T08:57:50.654Z,-53
2016-08-30T08:58:50.627Z,-54
2016-08-30T08:59:51.426Z,-53
2016-08-30T09:00:51.122Z,-53
2016-08-30T09:01:50.729Z,-52
2016-08-30T09:02:50.694Z,-51
2016-08-30T09:03:50.781Z,-55
2016-08-30T09:04:50.658Z,-53
2016-08-30T09:05:50.606Z,-54
2016-08-30T09:06:50.623Z,-53
2016-08-30T09:07:50.620Z,-54
2016-08-30T09:08:50.651Z,-53
2016-08-30T09:09:50.732Z,-54
2016-08-30T09:10:50.653Z,-55
2016-08-30T09:11:51.453Z,-54
2016-08-30T09:12:50.821Z,-52
2016-08-30T09:13:50.609Z,-51
2016-08-30T09:14:50.661Z,-51
2016-08-30T09:15:50.563Z,-52
2016-08-30T09:16:50.645Z,-51
2016-08-30T09:17:50.648Z,-54
2016-08-30T09:18:50.936Z,-52
2016-08-30T09:19:50.982Z,-52
2016-08-30T09:20:50.562Z,-53
2016-08-30T09:21:51.835Z,-54
2016-08-30T09:22:52.661Z,-52
2016-08-30T09:23:50.545Z,-49
2016-08-30T09:24:50.552Z,-50
2016-08-30T09:25:50.631Z,-52
2016-08-30T09:26:50.639Z,-54
2016-08-30T09:27:50.589Z,-53
2016-08-30T09:28:50.592Z,-53
2016-08-30T09:29:50.615Z,-52
2016-08-30T09:30:50.671Z,-53
2016-08-30T09:31:50.574Z,-51
2016-08-30T09:32:50.609Z,-52
2016-08-30T09:33:50.587Z,-52
2016-08-30T09:34:50.565Z,-53
2016-08-30T09:35:50.618Z,-49
2016-08-30T09:36:50.588Z,-52
2016-08-30T09:37:50.605Z,-53
2016-08-30T09:38:50.668Z,-53
2016-08-30T09:39:50.586Z,-55
2016-08-30T09:40:50.620Z,-52
2016-08-30T09:41:50.610Z,-55
2016-08-30T09:42:50.560Z,-55
2016-08-30T09:43:50.591Z,-55
2016-08-30T09:44:50.566Z,-53
2016-08-30T09:45:50.621Z,-54
2016-08-30T09:46:50.632Z,-53
2016-08-30T09:47:50.576Z,-54
2016-08-30T09:48:50.571Z,-54
2016-08-30T09:49:50.560Z,-54
2016-08-30T09:50:50.586Z,-52
2016-08-30T09:51:50.697Z,-54
2016-08-30T09:52:50.642Z,-53
2016-08-30T09:53:50.671Z,-54
2016-08-30T09:54:50.576Z,-52
2016-08-30T09:55:50.708Z,-55
2016-08-30T09:56:50.709Z,-55
2016-08-30T09:57:50.719Z,-55
2016-08-30T09:58:50.724Z,-54
2016-08-30T09:59:50.646Z,-54
2016-08-30T10:00:50.664Z,-52
2016-08-30T10:01:50.644Z,-51
2016-08-30T10:02:50.650Z,-54
2016-08-30T10:03:50.796Z,-54
2016-08-30T10:04:50.636Z,-55
2016-08-30T10:05:50.642Z,-57
2016-08-30T10:06:50.690Z,-56
2016-08-30T10:07:50.635Z,-53
2016-08-30T10:08:50.661Z,-56
2016-08-30T10:09:50.734Z,-56
2016-08-30T10:10:50.704Z,-57
2016-08-30T10:11:50.683Z,-55
2016-08-30T10:12:50.618Z,-54
2016-08-30T10:13:50.618Z,-53
2016-08-30T10:14:51.260Z,-54
2016-08-30T10:15:51.379Z,-55
2016-08-30T10:16:51.445Z,-55
2016-08-30T10:17:52.336Z,-53
2016-08-30T10:18:52.158Z,-54
2016-08-30T10:19:50.727Z,-55
2016-08-30T10:20:50.678Z,-55
2016-08-30T10:21:50.916Z,-54
2016-08-30T10:22:51.671Z,-52
2016-08-30T10:23:50.835Z,-53
2016-08-30T10:24:50.837Z,-53
2016-08-30T10:25:51.683Z,-54
2016-08-30T10:26:51.377Z,-56
2016-08-30T10:27:51.057Z,-56
2016-08-30T10:28:50.846Z,-55
2016-08-30T10:29:51.147Z,-52
2016-08-30T10:30:50.603Z,-56
2016-08-30T10:31:50.682Z,-53
2016-08-30T10:32:50.637Z,-55
2016-08-30T10:33:50.845Z,-52
2016-08-30T10:34:50.720Z,-54
2016-08-30T10:35:51.912Z,-54
2016-08-30T10:36:50.760Z,-56
2016-08-30T10:37:50.915Z,-56
2016-08-30T10:38:50.667Z,-55
2016-08-30T10:39:50.816Z,-53
2016-08-30T10:40:50.804Z,-56
2016-08-30T10:41:50.896Z,-53
2016-08-30T10:42:50.908Z,-54
2016-08-30T10:43:50.637Z,-51
2016-08-30T10:44:52.368Z,-53
2016-08-30T10:45:51.321Z,-54
2016-08-30T10:46:51.406Z,-51
2016-08-30T10:47:51.641Z,-51
2016-08-30T10:48:50.683Z,-48
2016-08-30T10:49:50.784Z,-57
2016-08-30T10:50:50.624Z,-55
2016-08-30T10:51:50.810Z,-55
2016-08-30T10:52:51.677Z,-55
2016-08-30T10:53:50.612Z,-54
2016-08-30T10:54:50.772Z,-59
2016-08-30T10:55:50.997Z,-57
2016-08-30T10:56:50.682Z,-54
2016-08-30T10:57:50.700Z,-54
2016-08-30T10:58:50.685Z,-55
2016-08-30T10:59:50.695Z,-53
2016-08-30T11:00:51.027Z,-52
2016-08-30T11:01:50.672Z,-58
2016-08-30T11:02:50.704Z,-50
2016-08-30T11:03:51.347Z,-48
2016-08-30T11:04:51.206Z,-48
2016-08-30T11:05:51.319Z,-52
2016-08-30T11:06:50.637Z,-50
2016-08-30T11:07:51.555Z,-50
2016-08-30T11:08:50.711Z,-48
2016-08-30T11:09:51.437Z,-52
2016-08-30T11:10:51.363Z,-50
2016-08-30T11:11:50.651Z,-49
2016-08-30T11:12:51.733Z,-51
2016-08-30T11:13:52.388Z,-51
2016-08-30T11:14:50.790Z,-53
2016-08-30T11:15:51.045Z,-52
2016-08-30T11:16:50.910Z,-53
2016-08-30T11:17:51.505Z,-51
2016-08-30T11:18:50.703Z,-52
2016-08-30T11:19:51.032Z,-50
2016-08-30T11:20:50.686Z,-52
2016-08-30T11:21:50.773Z,-53
2016-08-30T11:22:50.817Z,-52
2016-08-30T11:23:50.865Z,-51
2016-08-30T11:24:52.092Z,-53
2016-08-30T11:25:51.365Z,-52
2016-08-30T11:26:51.447Z,-52
2016-08-30T11:27:50.668Z,-52
2016-08-30T11:28:50.729Z,-53
2016-08-30T11:29:50.801Z,-52
2016-08-30T11:30:51.394Z,-52
2016-08-30T11:31:51.540Z,-54
2016-08-30T11:32:51.348Z,-52
2016-08-30T11:33:51.748Z,-55
2016-08-30T11:34:52.775Z,-50
2016-08-30T11:35:51.696Z,-51
2016-08-30T11:36:50.763Z,-52
2016-08-30T11:37:51.265Z,-51
2016-08-30T11:38:52.784Z,-52
2016-08-30T11:39:51.416Z,-53
2016-08-30T11:40:51.513Z,-53
2016-08-30T11:41:50.984Z,-52
2016-08-30T11:42:51.367Z,-54
2016-08-30T11:43:51.698Z,-52
2016-08-30T11:44:51.496Z,-52
2016-08-30T11:45:50.755Z,-53
2016-08-30T11:46:50.762Z,-49
2016-08-30T11:47:53.471Z,-51
2016-08-30T11:48:52.577Z,-52
2016-08-30T11:49:51.318Z,-54
2016-08-30T11:50:51.531Z,-51
2016-08-30T11:51:51.446Z,-53
2016-08-30T11:52:53.010Z,-54
2016-08-30T11:53:50.782Z,-52
2016-08-30T11:54:51.811Z,-52
2016-08-30T11:55:53.109Z,-53
2016-08-30T11:56:51.818Z,-54
2016-08-30T11:57:50.826Z,-53
2016-08-30T11:58:51.665Z,-52
2016-08-30T11:59:50.844Z,-50
2016-08-30T12:00:53.373Z,-57
2016-08-30T12:01:52.015Z,-53
2016-08-30T12:02:50.701Z,-51
2016-08-30T12:03:50.826Z,-52
2016-08-30T12:04:51.328Z,-50
2016-08-30T12:05:51.677Z,-51
2016-08-30T12:06:50.784Z,-48
2016-08-30T12:07:52.752Z,-51
2016-08-30T12:08:50.753Z,-52
2016-08-30T12:09:50.740Z,-50
2016-08-30T12:10:50.778Z,-51
2016-08-30T12:11:51.722Z,-51
2016-08-30T12:12:51.667Z,-52
2016-08-30T12:13:50.783Z,-53
2016-08-30T12:14:51.951Z,-54
2016-08-30T12:15:51.475Z,-50
2016-08-30T12:16:50.868Z,-53
2016-08-30T12:17:50.794Z,-54
2016-08-30T12:18:50.811Z,-52
2016-08-30T12:19:50.956Z,-54
2016-08-30T12:20:50.935Z,-54
2016-08-30T12:21:52.664Z,-52
2016-08-30T12:22:50.773Z,-54
2016-08-30T12:23:51.159Z,-55
2016-08-30T12:24:50.814Z,-55
2016-08-30T12:25:50.749Z,-57
2016-08-30T12:26:50.831Z,-53
2016-08-30T12:27:50.782Z,-51
2016-08-30T12:28:50.799Z,-51
2016-08-30T12:29:50.789Z,-53
2016-08-30T12:30:50.765Z,-53
2016-08-30T12:31:50.872Z,-53
2016-08-30T12:32:50.850Z,-52
2016-08-30T12:33:50.801Z,-52
2016-08-30T12:34:50.765Z,-52
2016-08-30T12:35:51.878Z,-51
2016-08-30T12:36:50.766Z,-52
2016-08-30T12:37:50.786Z,-54
2016-08-30T12:38:50.761Z,-54
2016-08-30T12:39:50.825Z,-54
2016-08-30T12:40:50.857Z,-55
2016-08-30T12:41:50.837Z,-53
2016-08-30T12:42:50.870Z,-54
2016-08-30T12:43:50.849Z,-55
2016-08-30T12:44:50.796Z,-54
2016-08-30T12:45:50.808Z,-53
2016-08-30T12:46:50.798Z,-56
2016-08-30T12:47:50.808Z,-55
2016-08-30T12:48:51.249Z,-55
2016-08-30T12:49:50.857Z,-55
2016-08-30T12:50:50.868Z,-55
2016-08-30T12:51:50.799Z,-53
2016-08-30T12:52:50.800Z,-52
2016-08-30T12:53:50.835Z,-54
2016-08-30T12:54:51.499Z,-51
2016-08-30T12:55:51.368Z,-52
2016-08-30T12:56:50.829Z,-51
2016-08-30T12:57:51.064Z,-54
2016-08-30T12:58:50.853Z,-54
2016-08-30T12:59:50.846Z,-54
2016-08-30T13:00:50.855Z,-52
2016-08-30T13:01:50.859Z,-51
2016-08-30T13:02:50.882Z,-53
2016-08-30T13:03:50.861Z,-54
2016-08-30T13:04:50.950Z,-55
2016-08-30T13:05:50.855Z,-54
2016-08-30T13:06:50.865Z,-53
2016-08-30T13:07:50.830Z,-54
2016-08-30T13:08:50.842Z,-55
2016-08-30T13:09:50.886Z,-54
2016-08-30T13:10:50.974Z,-49
2016-08-30T13:11:51.458Z,-52
2016-08-30T13:12:50.842Z,-52
2016-08-30T13:13:50.914Z,-50
2016-08-30T13:14:50.815Z,-48
2016-08-30T13:15:50.950Z,-50
2016-08-30T13:16:52.310Z,-49
2016-08-30T13:17:50.899Z,-51
2016-08-30T13:18:50.888Z,-52
2016-08-30T13:19:50.896Z,-55
2016-08-30T13:20:50.886Z,-55
2016-08-30T13:21:50.982Z,-56
2016-08-30T13:22:50.970Z,-55
2016-08-30T13:23:50.855Z,-53
2016-08-30T13:24:50.892Z,-53
2016-08-30T13:25:50.946Z,-55
2016-08-30T13:26:50.926Z,-52
2016-08-30T13:27:50.936Z,-53
2016-08-30T13:28:50.903Z,-52
2016-08-30T13:29:50.946Z,-51
2016-08-30T13:30:50.919Z,-52
2016-08-30T13:31:50.918Z,-54
2016-08-30T13:32:50.938Z,-55
2016-08-30T13:33:50.899Z,-52
2016-08-30T13:34:50.864Z,-56
2016-08-30T13:35:50.946Z,-55
2016-08-30T13:36:50.858Z,-54
2016-08-30T13:37:50.804Z,-52
2016-08-30T13:38:51.514Z,-51
2016-08-30T13:39:50.861Z,-54
2016-08-30T13:40:50.876Z,-53
2016-08-30T13:41:51.188Z,-54
2016-08-30T13:42:50.833Z,-52
2016-08-30T13:43:50.889Z,-54
2016-08-30T13:44:50.879Z,-53
2016-08-30T13:45:51.473Z,-53
2016-08-30T13:46:50.879Z,-54
2016-08-30T13:47:50.940Z,-51
2016-08-30T13:48:50.853Z,-51
2016-08-30T13:49:50.861Z,-52
2016-08-30T13:50:50.867Z,-52
2016-08-30T13:51:50.875Z,-54
2016-08-30T13:52:50.834Z,-55
2016-08-30T13:53:50.903Z,-55
2016-08-30T13:54:51.653Z,-54
2016-08-30T13:55:50.834Z,-55
2016-08-30T13:56:51.983Z,-56
2016-08-30T13:57:51.890Z,-55